KTVF/TVF METAR and TAF weather

Enter ICAO airport designator
Station Type Date Time Source
KTVF METAR 2018/12/10 07:56 UTC NOAA

KTVF 100756Z AUTO 21010KT 10SM CLR M09/M11 A3007 RMK AO2 SLP207 T10941111 FZRANO


Station Type Date Time Source
KTVF Decoded METAR 2018/12/10 07:56 UTC NOAA

Thief River Falls, Thief River Falls Regional Airport, MN, United States (KTVF) 48-04N 096-11W
Dec 10, 2018 - 02:56 AM EST / 2018.12.10 0756 UTC
Wind: from the SSW (210 degrees) at 12 MPH (10 KT):0
Visibility: 10 mile(s):0
Sky conditions: clear
Temperature: 15.1 F (-9.4 C)
Windchill: 1 F (-17 C):1
Dew Point: 12.0 F (-11.1 C)
Relative Humidity: 87%
Pressure (altimeter): 30.07 in. Hg (1018 hPa)
ob: KTVF 100756Z AUTO 21010KT 10SM CLR M09/M11 A3007 RMK AO2 SLP207 T10941111 FZRANO
cycle: 8

Station Type Date Time Source
KTVF TAF 2018/12/10 06:42 UTC NOAA

TAF KTVF 100539Z 1006/1106 19008KT P6SM SKC
FM102300 28008KT P6SM FEW190


Example: see airport list